createdAt,value
2018-12-01T00:00:17.673Z,21.53
2018-12-01T00:00:49.269Z,21.46
2018-12-01T00:01:20.869Z,21.40
2018-12-01T00:01:52.471Z,21.15
2018-12-01T00:02:24.079Z,21.31
2018-12-01T00:02:55.673Z,21.25
2018-12-01T00:03:27.255Z,21.21
2018-12-01T00:03:58.858Z,21.16
2018-12-01T00:04:30.453Z,21.12
2018-12-01T00:05:02.062Z,21.07
2018-12-01T00:05:33.685Z,21.05
2018-12-01T00:06:05.281Z,21.03
2018-12-01T00:06:36.873Z,21.00
2018-12-01T00:07:08.466Z,20.98
2018-12-01T00:07:40.091Z,21.03
2018-12-01T00:08:11.693Z,21.10
2018-12-01T00:08:43.285Z,21.17
2018-12-01T00:09:14.886Z,21.24
2018-12-01T00:09:46.497Z,21.31
2018-12-01T00:10:18.090Z,21.36
2018-12-01T00:10:49.701Z,21.40
2018-12-01T00:11:21.302Z,21.44
2018-12-01T00:11:52.900Z,21.46
2018-12-01T00:12:24.508Z,21.53
2018-12-01T00:12:56.140Z,21.56
2018-12-01T00:13:27.734Z,21.55
2018-12-01T00:13:59.344Z,21.54
2018-12-01T00:14:30.938Z,21.54
2018-12-01T00:15:02.534Z,21.51
2018-12-01T00:15:34.125Z,21.53
2018-12-01T00:16:05.717Z,21.51
2018-12-01T00:16:37.319Z,21.50
2018-12-01T00:17:08.928Z,21.50
2018-12-01T00:17:40.539Z,21.50
2018-12-01T00:18:12.172Z,21.48
2018-12-01T00:18:43.778Z,21.46
2018-12-01T00:19:15.364Z,21.45
2018-12-01T00:19:46.968Z,21.44
2018-12-01T00:20:18.580Z,21.42
2018-12-01T00:20:50.173Z,21.42
2018-12-01T00:21:21.775Z,21.43
2018-12-01T00:21:53.363Z,21.43
2018-12-01T00:22:24.957Z,21.42
2018-12-01T00:22:56.583Z,21.42
2018-12-01T00:23:28.194Z,21.28
2018-12-01T00:24:09.710Z,21.38
2018-12-01T00:24:41.309Z,21.37
2018-12-01T00:25:12.941Z,21.36
2018-12-01T00:25:44.555Z,21.33
2018-12-01T00:26:16.168Z,21.32
2018-12-01T00:26:47.776Z,21.31
2018-12-01T00:27:19.377Z,21.30
2018-12-01T00:27:50.998Z,21.29
2018-12-01T00:28:22.599Z,21.28
2018-12-01T00:28:54.208Z,21.26
2018-12-01T00:29:25.812Z,21.26
2018-12-01T00:29:57.416Z,21.25
2018-12-01T00:30:29.069Z,21.25
2018-12-01T00:31:00.658Z,21.23
2018-12-01T00:31:32.244Z,21.16
2018-12-01T00:32:03.866Z,21.04
2018-12-01T00:32:35.476Z,20.90
2018-12-01T00:33:07.115Z,20.74
2018-12-01T00:33:38.703Z,20.45
2018-12-01T00:34:10.298Z,20.62
2018-12-01T00:34:41.895Z,20.60
2018-12-01T00:35:13.490Z,20.60
2018-12-01T00:35:45.082Z,20.59
2018-12-01T00:36:16.664Z,20.57
2018-12-01T00:36:48.263Z,20.55
2018-12-01T00:37:19.845Z,20.54
2018-12-01T00:37:51.487Z,20.52
2018-12-01T00:38:23.127Z,20.50
2018-12-01T00:38:54.737Z,20.49
2018-12-01T00:39:26.352Z,20.47
2018-12-01T00:39:57.959Z,20.45
2018-12-01T00:40:29.576Z,20.44
2018-12-01T00:41:01.178Z,20.43
2018-12-01T00:41:32.760Z,20.40
2018-12-01T00:42:04.363Z,20.39
2018-12-01T00:42:35.958Z,20.36
2018-12-01T00:43:07.582Z,20.35
2018-12-01T00:43:39.174Z,20.34
2018-12-01T00:44:10.756Z,20.33
2018-12-01T00:44:42.352Z,20.33
2018-12-01T00:45:13.954Z,20.31
2018-12-01T00:45:45.548Z,20.29
2018-12-01T00:46:17.141Z,20.29
2018-12-01T00:46:48.744Z,20.27
2018-12-01T00:47:20.352Z,20.25
2018-12-01T00:47:51.968Z,20.21
2018-12-01T00:48:23.583Z,20.22
2018-12-01T00:48:55.174Z,20.20
2018-12-01T00:49:26.756Z,20.20
2018-12-01T00:49:58.360Z,20.19
2018-12-01T00:50:29.958Z,20.17
2018-12-01T00:51:01.550Z,20.04
2018-12-01T00:51:33.156Z,20.14
2018-12-01T00:52:04.751Z,20.12
2018-12-01T00:52:36.342Z,20.09
2018-12-01T00:53:07.976Z,20.09
2018-12-01T00:53:39.570Z,20.08
2018-12-01T00:54:11.175Z,20.07
2018-12-01T00:54:42.771Z,20.06
2018-12-01T00:55:14.371Z,20.04
2018-12-01T00:55:45.952Z,20.02
2018-12-01T00:56:17.555Z,20.00
2018-12-01T00:56:49.149Z,19.99
2018-12-01T00:57:20.741Z,19.98
2018-12-01T00:57:52.354Z,19.77
2018-12-01T00:58:24.000Z,19.95
2018-12-01T00:58:55.594Z,19.94
2018-12-01T00:59:27.192Z,19.93
2018-12-01T00:59:58.800Z,19.91
2018-12-01T01:00:30.398Z,19.90
2018-12-01T01:01:01.973Z,19.90
2018-12-01T01:01:33.584Z,19.82
2018-12-01T01:02:05.173Z,19.77
2018-12-01T01:02:36.779Z,19.89
2018-12-01T01:03:08.437Z,19.89
2018-12-01T01:03:40.053Z,19.88
2018-12-01T01:04:11.708Z,19.88
2018-12-01T01:04:43.288Z,19.88
2018-12-01T01:05:14.890Z,19.86
2018-12-01T01:05:46.500Z,19.86
2018-12-01T01:06:18.095Z,19.85
2018-12-01T01:06:49.710Z,19.84
2018-12-01T01:07:21.311Z,19.83
2018-12-01T01:07:52.920Z,19.80
2018-12-01T01:08:24.560Z,19.81
2018-12-01T01:08:56.158Z,19.80
2018-12-01T01:09:27.764Z,19.79
2018-12-01T01:09:59.367Z,19.77
2018-12-01T01:10:30.965Z,19.77
2018-12-01T01:11:02.572Z,19.76
2018-12-01T01:11:34.171Z,19.76
2018-12-01T01:12:05.784Z,19.75
2018-12-01T01:12:37.392Z,19.74
2018-12-01T01:13:09.005Z,19.74
2018-12-01T01:13:40.626Z,19.73
2018-12-01T01:14:12.218Z,19.73
2018-12-01T01:14:43.809Z,19.72
2018-12-01T01:15:15.417Z,19.73
2018-12-01T01:15:47.028Z,19.73
2018-12-01T01:16:18.636Z,19.73
2018-12-01T01:16:50.230Z,19.72
2018-12-01T01:17:21.821Z,19.72
2018-12-01T01:17:53.445Z,19.70
2018-12-01T01:18:25.068Z,19.70
2018-12-01T01:18:56.662Z,19.71
2018-12-01T01:19:28.272Z,19.70
2018-12-01T01:19:59.887Z,19.68
2018-12-01T01:20:31.497Z,19.67
2018-12-01T01:21:03.100Z,19.65
2018-12-01T01:21:34.716Z,19.64
2018-12-01T01:22:06.333Z,19.61
2018-12-01T01:22:37.931Z,19.60
2018-12-01T01:23:09.527Z,19.59
2018-12-01T01:23:41.164Z,19.57
2018-12-01T01:24:12.772Z,19.56
2018-12-01T01:24:44.376Z,19.55
2018-12-01T01:25:15.984Z,19.51
2018-12-01T01:25:47.578Z,19.52
2018-12-01T01:26:19.169Z,19.51
2018-12-01T01:26:50.761Z,19.51
2018-12-01T01:27:22.354Z,19.50
2018-12-01T01:27:53.950Z,19.49
2018-12-01T01:28:25.581Z,19.48
2018-12-01T01:28:57.178Z,19.47
2018-12-01T01:29:28.770Z,19.47
2018-12-01T01:30:00.372Z,19.46
2018-12-01T01:30:32.087Z,19.46
2018-12-01T01:31:03.695Z,19.45
2018-12-01T01:31:35.289Z,19.45
2018-12-01T01:32:06.908Z,19.44
2018-12-01T01:32:38.501Z,19.43
2018-12-01T01:33:10.093Z,19.43
2018-12-01T01:33:41.700Z,19.44
2018-12-01T01:34:13.293Z,19.45
2018-12-01T01:34:44.886Z,19.43
2018-12-01T01:35:16.486Z,19.45
2018-12-01T01:35:48.096Z,19.45
2018-12-01T01:36:19.707Z,19.44
2018-12-01T01:36:51.302Z,19.44
2018-12-01T01:37:22.885Z,19.44
2018-12-01T01:37:54.477Z,19.44
2018-12-01T01:38:26.088Z,19.45
2018-12-01T01:38:57.697Z,19.45
2018-12-01T01:39:29.319Z,19.46
2018-12-01T01:40:00.922Z,19.44
2018-12-01T01:40:32.535Z,19.43
2018-12-01T01:41:04.131Z,19.43
2018-12-01T01:41:35.723Z,19.43
2018-12-01T01:42:07.325Z,19.43
2018-12-01T01:42:38.931Z,19.41
2018-12-01T01:43:10.531Z,19.40
2018-12-01T01:43:42.159Z,19.39
2018-12-01T01:44:13.770Z,19.39
2018-12-01T01:44:45.402Z,19.37
2018-12-01T01:45:16.993Z,19.37
2018-12-01T01:45:48.600Z,19.29
2018-12-01T01:46:20.207Z,19.36
2018-12-01T01:46:51.784Z,19.37
2018-12-01T01:47:23.387Z,19.38
2018-12-01T01:47:54.971Z,19.38
2018-12-01T01:48:26.569Z,19.37
2018-12-01T01:48:58.203Z,19.38
2018-12-01T01:49:29.812Z,19.37
2018-12-01T01:50:01.393Z,19.37
2018-12-01T01:50:33.000Z,19.37
2018-12-01T01:51:04.608Z,19.37
2018-12-01T01:51:36.203Z,19.37
2018-12-01T01:52:07.788Z,19.36
2018-12-01T01:52:39.384Z,19.34
2018-12-01T01:53:11.000Z,19.35
2018-12-01T01:53:42.637Z,19.35
2018-12-01T01:54:14.275Z,19.35
2018-12-01T01:54:45.870Z,19.35
2018-12-01T01:55:17.472Z,19.35
2018-12-01T01:55:49.081Z,19.34
2018-12-01T01:56:20.673Z,19.34
2018-12-01T01:56:52.267Z,19.33
2018-12-01T01:57:23.862Z,19.33
2018-12-01T01:57:55.480Z,19.33
2018-12-01T01:58:27.078Z,19.32
2018-12-01T01:58:58.698Z,19.32
2018-12-01T01:59:30.290Z,19.32
2018-12-01T02:00:01.892Z,19.31
2018-12-01T02:00:33.501Z,19.31
2018-12-01T02:01:05.111Z,19.29
2018-12-01T02:01:36.706Z,19.29
2018-12-01T02:02:08.301Z,19.27
2018-12-01T02:02:39.890Z,19.27
2018-12-01T02:03:11.483Z,19.27
2018-12-01T02:03:43.125Z,19.26
2018-12-01T02:04:14.736Z,19.25
2018-12-01T02:04:46.330Z,19.27
2018-12-01T02:05:17.919Z,19.26
2018-12-01T02:05:49.510Z,19.27
2018-12-01T02:06:21.106Z,19.27
2018-12-01T02:06:52.713Z,19.27
2018-12-01T02:07:24.310Z,19.25
2018-12-01T02:07:55.892Z,19.26
2018-12-01T02:08:27.524Z,19.26
2018-12-01T02:08:59.156Z,19.27
2018-12-01T02:09:30.749Z,19.27
2018-12-01T02:10:02.346Z,19.23
2018-12-01T02:10:33.940Z,19.24
2018-12-01T02:11:05.535Z,19.23
2018-12-01T02:11:37.144Z,19.23
2018-12-01T02:12:08.752Z,19.21
2018-12-01T02:12:40.356Z,19.19
2018-12-01T02:13:11.968Z,19.17
2018-12-01T02:13:43.549Z,19.17
2018-12-01T02:14:15.170Z,19.16
2018-12-01T02:14:46.772Z,19.16
2018-12-01T02:15:18.367Z,19.15
2018-12-01T02:15:49.952Z,19.14
2018-12-01T02:16:21.550Z,19.14
2018-12-01T02:16:53.133Z,19.13
2018-12-01T02:17:24.732Z,19.11
2018-12-01T02:17:56.330Z,19.12
2018-12-01T02:18:27.940Z,19.12
2018-12-01T02:18:59.569Z,19.12
2018-12-01T02:19:31.166Z,19.13
2018-12-01T02:20:02.757Z,19.12
2018-12-01T02:20:34.343Z,19.11
2018-12-01T02:21:05.947Z,19.11
2018-12-01T02:21:37.551Z,19.10
2018-12-01T02:22:09.136Z,19.09
2018-12-01T02:22:40.740Z,19.09
2018-12-01T02:23:12.364Z,19.09
2018-12-01T02:23:43.957Z,19.08
2018-12-01T02:24:15.592Z,19.07
2018-12-01T02:24:47.193Z,19.07
2018-12-01T02:25:18.802Z,19.05
2018-12-01T02:25:50.397Z,19.05
2018-12-01T02:26:22.005Z,19.02
2018-12-01T02:26:53.620Z,19.04
2018-12-01T02:27:25.218Z,19.02
2018-12-01T02:27:56.829Z,19.02
2018-12-01T02:28:28.421Z,19.02
2018-12-01T02:29:00.043Z,19.01
2018-12-01T02:29:31.634Z,19.02
2018-12-01T02:30:03.245Z,19.02
2018-12-01T02:30:34.832Z,19.01
2018-12-01T02:31:06.434Z,19.00
2018-12-01T02:31:38.034Z,19.00
2018-12-01T02:32:09.631Z,18.99
2018-12-01T02:32:41.226Z,18.98
2018-12-01T02:33:12.819Z,18.98
2018-12-01T02:33:44.422Z,18.98
2018-12-01T02:34:16.043Z,18.97
2018-12-01T02:34:47.659Z,18.97
2018-12-01T02:35:19.257Z,18.97
2018-12-01T02:35:50.850Z,18.96
2018-12-01T02:36:22.451Z,18.96
2018-12-01T02:36:54.036Z,18.95
2018-12-01T02:37:25.631Z,18.95
2018-12-01T02:37:57.252Z,18.93
2018-12-01T02:38:28.847Z,18.94
2018-12-01T02:39:00.495Z,18.93
2018-12-01T02:39:32.109Z,18.93
2018-12-01T02:40:03.721Z,18.93
2018-12-01T02:40:35.328Z,18.92
2018-12-01T02:41:06.922Z,18.91
2018-12-01T02:41:38.540Z,18.92
2018-12-01T02:42:10.133Z,18.93
2018-12-01T02:42:41.736Z,18.94
2018-12-01T02:43:13.330Z,18.95
2018-12-01T02:43:44.941Z,18.96
2018-12-01T02:44:16.562Z,18.87
2018-12-01T02:44:48.162Z,18.96
2018-12-01T02:45:20.445Z,18.95
2018-12-01T02:45:52.055Z,18.95
2018-12-01T02:46:23.655Z,18.95
2018-12-01T02:46:55.264Z,18.94
2018-12-01T02:47:26.846Z,18.95
2018-12-01T02:47:58.448Z,18.95
2018-12-01T02:48:30.032Z,18.95
2018-12-01T02:49:01.644Z,18.94
2018-12-01T02:49:33.261Z,18.93
2018-12-01T02:50:04.868Z,18.92
2018-12-01T02:50:36.464Z,18.92
2018-12-01T02:51:08.066Z,18.92
2018-12-01T02:51:39.664Z,18.93
2018-12-01T02:52:11.269Z,18.93
2018-12-01T02:52:42.870Z,18.93
2018-12-01T02:53:14.463Z,18.93
2018-12-01T02:53:46.073Z,18.92
2018-12-01T02:54:17.695Z,18.91
2018-12-01T02:54:49.304Z,18.92
2018-12-01T02:55:20.912Z,18.91
2018-12-01T02:55:52.511Z,18.92
2018-12-01T02:56:24.114Z,18.91
2018-12-01T02:56:55.716Z,18.90
2018-12-01T02:57:27.300Z,18.90
2018-12-01T02:57:58.885Z,18.90
2018-12-01T02:58:30.492Z,18.90
2018-12-01T02:59:02.100Z,18.89
2018-12-01T02:59:33.718Z,18.88
2018-12-01T03:00:05.336Z,18.88
2018-12-01T03:00:36.937Z,18.88
2018-12-01T03:01:08.544Z,18.87
2018-12-01T03:01:40.152Z,18.86
2018-12-01T03:02:11.750Z,18.87
2018-12-01T03:02:43.328Z,18.87
2018-12-01T03:03:14.928Z,18.86
2018-12-01T03:03:46.525Z,18.86
2018-12-01T03:04:18.163Z,18.86
2018-12-01T03:04:49.758Z,18.86
2018-12-01T03:05:21.350Z,18.85
2018-12-01T03:05:52.951Z,18.85
2018-12-01T03:06:24.560Z,18.84
2018-12-01T03:06:56.159Z,18.85
2018-12-01T03:07:27.747Z,18.86
2018-12-01T03:07:59.338Z,18.89
2018-12-01T03:08:30.934Z,18.88
2018-12-01T03:09:02.544Z,18.90
2018-12-01T03:09:34.184Z,18.90
2018-12-01T03:10:05.778Z,18.90
2018-12-01T03:10:37.383Z,18.90
2018-12-01T03:11:08.996Z,18.90
2018-12-01T03:11:40.609Z,18.89
2018-12-01T03:12:12.206Z,18.89
2018-12-01T03:12:43.792Z,18.89
2018-12-01T03:13:15.372Z,18.89
2018-12-01T03:13:46.976Z,18.88
2018-12-01T03:14:18.613Z,18.87
2018-12-01T03:14:50.239Z,18.87
2018-12-01T03:15:21.834Z,18.87
2018-12-01T03:15:53.442Z,18.88
2018-12-01T03:16:25.033Z,18.84
2018-12-01T03:16:56.630Z,18.86
2018-12-01T03:17:28.225Z,18.86
2018-12-01T03:17:59.822Z,18.85
2018-12-01T03:18:31.417Z,18.84
2018-12-01T03:19:03.025Z,18.82
2018-12-01T03:19:34.645Z,18.83
2018-12-01T03:20:06.237Z,18.83
2018-12-01T03:20:37.839Z,18.83
2018-12-01T03:21:09.430Z,18.82
2018-12-01T03:21:41.042Z,18.82
2018-12-01T03:22:12.652Z,18.81
2018-12-01T03:22:44.236Z,18.80
2018-12-01T03:23:15.846Z,18.81
2018-12-01T03:23:47.443Z,18.80
2018-12-01T03:24:19.051Z,18.79
2018-12-01T03:24:50.677Z,18.79
2018-12-01T03:25:22.259Z,18.77
2018-12-01T03:25:53.868Z,18.78
2018-12-01T03:26:25.449Z,18.78
2018-12-01T03:26:57.091Z,18.75
2018-12-01T03:27:28.687Z,18.77
2018-12-01T03:28:00.287Z,18.55
2018-12-01T03:28:31.910Z,18.77
2018-12-01T03:29:03.510Z,18.75
2018-12-01T03:29:35.117Z,18.76
2018-12-01T03:30:06.739Z,18.53
2018-12-01T03:30:39.952Z,18.74
2018-12-01T03:31:11.560Z,18.73
2018-12-01T03:31:43.158Z,18.73
2018-12-01T03:32:14.770Z,18.74
2018-12-01T03:32:46.386Z,18.75
2018-12-01T03:33:17.982Z,18.77
2018-12-01T03:33:49.577Z,18.78
2018-12-01T03:34:21.160Z,18.79
2018-12-01T03:34:52.777Z,18.80
2018-12-01T03:35:24.372Z,18.80
2018-12-01T03:35:55.977Z,18.69
2018-12-01T03:36:27.570Z,18.81
2018-12-01T03:36:59.161Z,18.57
2018-12-01T03:37:30.768Z,18.79
2018-12-01T03:38:02.375Z,18.79
2018-12-01T03:38:33.970Z,18.78
2018-12-01T03:39:05.580Z,18.78
2018-12-01T03:39:37.165Z,18.77
2018-12-01T03:40:08.786Z,18.77
2018-12-01T03:40:40.371Z,18.75
2018-12-01T03:41:11.962Z,18.75
2018-12-01T03:41:43.558Z,18.75
2018-12-01T03:42:15.165Z,18.75
2018-12-01T03:42:46.764Z,18.75
2018-12-01T03:43:18.362Z,18.74
2018-12-01T03:43:49.971Z,18.73
2018-12-01T03:44:21.566Z,18.72
2018-12-01T03:44:53.158Z,18.71
2018-12-01T03:45:24.809Z,18.71
2018-12-01T03:45:56.406Z,18.71
2018-12-01T03:46:28.011Z,18.71
2018-12-01T03:46:59.610Z,18.70
2018-12-01T03:47:31.205Z,18.68
2018-12-01T03:48:02.797Z,18.70
2018-12-01T03:48:34.391Z,18.70
2018-12-01T03:49:05.980Z,18.67
2018-12-01T03:49:37.575Z,18.68
2018-12-01T03:50:09.188Z,18.68
2018-12-01T03:50:40.791Z,18.67
2018-12-01T03:51:12.391Z,18.67
2018-12-01T03:51:43.983Z,18.66
2018-12-01T03:52:15.578Z,18.66
2018-12-01T03:52:47.169Z,18.66
2018-12-01T03:53:18.752Z,18.65
2018-12-01T03:53:50.357Z,18.64
2018-12-01T03:54:21.944Z,18.63
2018-12-01T03:54:53.543Z,18.63
2018-12-01T03:55:25.152Z,18.63
2018-12-01T03:55:56.760Z,18.63
2018-12-01T03:56:28.359Z,18.61
2018-12-01T03:56:59.958Z,18.62
2018-12-01T03:57:31.586Z,18.62
2018-12-01T03:58:03.195Z,18.63
2018-12-01T03:58:34.800Z,18.62
2018-12-01T03:59:06.398Z,18.62
2018-12-01T03:59:37.998Z,18.61
2018-12-01T04:00:09.603Z,18.61
2018-12-01T04:00:41.216Z,18.62
2018-12-01T04:01:12.819Z,18.63
2018-12-01T04:01:44.400Z,18.63
2018-12-01T04:02:15.994Z,18.64
2018-12-01T04:02:47.589Z,18.63
2018-12-01T04:03:19.182Z,18.62
2018-12-01T04:03:50.788Z,18.61
2018-12-01T04:04:22.388Z,18.60
2018-12-01T04:04:53.982Z,18.58
2018-12-01T04:05:25.616Z,18.58
2018-12-01T04:05:57.228Z,18.57
2018-12-01T04:06:28.839Z,18.57
2018-12-01T04:07:00.448Z,18.52
2018-12-01T04:07:32.042Z,18.55
2018-12-01T04:08:03.653Z,18.55
2018-12-01T04:08:35.288Z,18.54
2018-12-01T04:09:06.873Z,18.54
2018-12-01T04:09:38.466Z,18.54
2018-12-01T04:10:10.076Z,18.52
2018-12-01T04:10:41.707Z,18.52
2018-12-01T04:11:13.315Z,18.52
2018-12-01T04:11:44.901Z,18.51
2018-12-01T04:12:16.494Z,18.51
2018-12-01T04:12:48.086Z,18.50
2018-12-01T04:13:19.683Z,18.47
2018-12-01T04:13:51.287Z,18.49
2018-12-01T04:14:22.881Z,18.49
2018-12-01T04:14:54.488Z,18.48
2018-12-01T04:15:26.113Z,18.47
2018-12-01T04:15:57.706Z,18.46
2018-12-01T04:16:29.312Z,18.46
2018-12-01T04:17:00.898Z,18.46
2018-12-01T04:17:32.503Z,18.46
2018-12-01T04:18:04.115Z,18.46
2018-12-01T04:18:35.694Z,18.45
2018-12-01T04:19:07.296Z,18.45
2018-12-01T04:19:38.890Z,18.44
2018-12-01T04:20:10.482Z,18.44
2018-12-01T04:20:42.098Z,18.44
2018-12-01T04:21:13.690Z,18.43
2018-12-01T04:21:45.286Z,18.42
2018-12-01T04:22:16.890Z,18.42
2018-12-01T04:22:48.486Z,18.41
2018-12-01T04:23:20.082Z,18.41
2018-12-01T04:23:51.684Z,18.41
2018-12-01T04:24:23.282Z,18.40
2018-12-01T04:24:54.868Z,18.41
2018-12-01T04:25:26.501Z,18.41
2018-12-01T04:25:58.126Z,18.40
2018-12-01T04:26:29.725Z,18.40
2018-12-01T04:27:01.318Z,18.40
2018-12-01T04:27:32.900Z,18.39
2018-12-01T04:28:04.490Z,18.39
2018-12-01T04:28:36.098Z,17.78
2018-12-01T04:29:07.680Z,18.39
2018-12-01T04:29:39.274Z,18.38
2018-12-01T04:30:10.876Z,18.38
2018-12-01T04:30:42.498Z,18.38
2018-12-01T04:31:14.107Z,18.36
2018-12-01T04:31:45.712Z,18.35
2018-12-01T04:32:17.320Z,18.34
2018-12-01T04:32:48.914Z,18.35
2018-12-01T04:33:20.520Z,18.35
2018-12-01T04:33:52.129Z,18.34
2018-12-01T04:34:23.735Z,18.33
2018-12-01T04:34:55.326Z,18.33
2018-12-01T04:35:26.926Z,18.33
2018-12-01T04:35:58.555Z,18.33
2018-12-01T04:36:30.167Z,18.33
2018-12-01T04:37:01.779Z,18.33
2018-12-01T04:37:33.374Z,18.32
2018-12-01T04:38:04.970Z,18.29
2018-12-01T04:38:36.582Z,18.30
2018-12-01T04:39:08.185Z,18.30
2018-12-01T04:39:39.800Z,18.29
2018-12-01T04:40:11.419Z,18.30
2018-12-01T04:40:43.058Z,18.29
2018-12-01T04:41:14.654Z,18.28
2018-12-01T04:41:46.265Z,18.28
2018-12-01T04:42:17.870Z,18.29
2018-12-01T04:42:49.464Z,18.27
2018-12-01T04:43:21.063Z,18.27
2018-12-01T04:43:52.648Z,18.26
2018-12-01T04:44:24.257Z,18.26
2018-12-01T04:44:55.844Z,18.27
2018-12-01T04:45:27.434Z,18.26
2018-12-01T04:45:59.069Z,18.26
2018-12-01T04:46:30.683Z,18.26
2018-12-01T04:47:02.278Z,18.25
2018-12-01T04:47:33.870Z,18.25
2018-12-01T04:48:05.484Z,18.24
2018-12-01T04:48:37.078Z,18.24
2018-12-01T04:49:08.670Z,18.24
2018-12-01T04:49:40.276Z,18.23
2018-12-01T04:50:11.870Z,18.23
2018-12-01T04:50:43.495Z,18.23
2018-12-01T04:51:15.090Z,18.23
2018-12-01T04:51:46.691Z,18.23
2018-12-01T04:52:18.285Z,18.22
2018-12-01T04:52:49.929Z,18.22
2018-12-01T04:53:21.516Z,18.21
2018-12-01T04:53:53.110Z,18.22
2018-12-01T04:54:24.716Z,18.22
2018-12-01T04:54:56.329Z,18.19
2018-12-01T04:55:27.926Z,18.18
2018-12-01T04:55:59.564Z,18.20
2018-12-01T04:56:31.166Z,18.20
2018-12-01T04:57:02.777Z,18.23
2018-12-01T04:57:34.369Z,18.25
2018-12-01T04:58:05.977Z,18.27
2018-12-01T04:58:37.583Z,18.28
2018-12-01T04:59:09.164Z,18.27
2018-12-01T04:59:40.759Z,18.28
2018-12-01T05:00:12.353Z,18.27
2018-12-01T05:00:43.973Z,18.27
2018-12-01T05:01:15.566Z,18.28
2018-12-01T05:01:47.166Z,18.27
2018-12-01T05:02:18.762Z,18.29
2018-12-01T05:02:50.359Z,18.29
2018-12-01T05:03:21.944Z,18.29
2018-12-01T05:03:53.552Z,18.29
2018-12-01T05:04:25.154Z,18.30
2018-12-01T05:04:56.750Z,18.28
2018-12-01T05:05:28.351Z,18.30
2018-12-01T05:05:59.984Z,18.30
2018-12-01T05:06:31.596Z,18.30
2018-12-01T05:07:03.201Z,18.31
2018-12-01T05:07:34.805Z,18.10
2018-12-01T05:08:06.402Z,18.31
2018-12-01T05:08:37.998Z,18.31
2018-12-01T05:09:09.601Z,18.31
2018-12-01T05:09:41.187Z,18.31
2018-12-01T05:10:12.790Z,18.32
2018-12-01T05:10:44.391Z,18.32
2018-12-01T05:11:16.026Z,18.31
2018-12-01T05:11:47.640Z,18.32
2018-12-01T05:12:19.233Z,18.32
2018-12-01T05:12:50.841Z,18.32
2018-12-01T05:13:22.444Z,18.31
2018-12-01T05:13:54.047Z,18.31
2018-12-01T05:14:25.645Z,18.33
2018-12-01T05:14:57.252Z,18.33
2018-12-01T05:15:28.845Z,18.33
2018-12-01T05:16:00.480Z,18.31
2018-12-01T05:16:32.081Z,18.31
2018-12-01T05:17:03.675Z,18.28
2018-12-01T05:17:35.288Z,18.29
2018-12-01T05:18:06.885Z,18.27
2018-12-01T05:18:38.489Z,18.26
2018-12-01T05:19:10.085Z,18.25
2018-12-01T05:19:41.678Z,18.24
2018-12-01T05:20:13.269Z,18.23
2018-12-01T05:20:44.870Z,18.22
2018-12-01T05:21:16.503Z,18.21
2018-12-01T05:21:48.092Z,18.21
2018-12-01T05:22:19.672Z,18.20
2018-12-01T05:22:51.252Z,18.19
2018-12-01T05:23:22.852Z,18.18
2018-12-01T05:23:54.448Z,18.18
2018-12-01T05:24:26.051Z,18.20
2018-12-01T05:24:57.646Z,18.20
2018-12-01T05:25:29.248Z,18.21
2018-12-01T05:26:00.852Z,18.21
2018-12-01T05:26:32.483Z,18.21
2018-12-01T05:27:04.078Z,18.21
2018-12-01T05:27:35.689Z,18.19
2018-12-01T05:28:07.287Z,18.19
2018-12-01T05:28:38.892Z,18.18
2018-12-01T05:29:10.489Z,18.17
2018-12-01T05:29:42.160Z,18.16
2018-12-01T05:30:13.743Z,18.16
2018-12-01T05:30:45.344Z,18.15
2018-12-01T05:31:16.972Z,18.15
2018-12-01T05:31:48.565Z,18.14
2018-12-01T05:32:20.154Z,18.14
2018-12-01T05:32:51.773Z,18.13
2018-12-01T05:33:23.379Z,18.12
2018-12-01T05:33:54.973Z,18.12
2018-12-01T05:34:26.565Z,18.12
2018-12-01T05:34:58.162Z,18.10
2018-12-01T05:35:29.745Z,18.12
2018-12-01T05:36:01.341Z,18.10
2018-12-01T05:36:32.976Z,18.11
2018-12-01T05:37:04.573Z,18.10
2018-12-01T05:37:36.180Z,18.10
2018-12-01T05:38:07.778Z,18.10
2018-12-01T05:38:39.388Z,18.09
2018-12-01T05:39:10.996Z,18.08
2018-12-01T05:39:42.590Z,18.08
2018-12-01T05:40:14.200Z,18.07
2018-12-01T05:40:45.802Z,18.07
2018-12-01T05:41:17.428Z,18.06
2018-12-01T05:41:49.031Z,18.06
2018-12-01T05:42:20.616Z,18.06
2018-12-01T05:42:52.219Z,18.05
2018-12-01T05:43:23.829Z,18.03
2018-12-01T05:43:55.434Z,18.05
2018-12-01T05:44:27.034Z,18.04
2018-12-01T05:44:58.671Z,18.03
2018-12-01T05:45:30.266Z,18.04
2018-12-01T05:46:01.858Z,18.03
2018-12-01T05:46:33.497Z,18.03
2018-12-01T05:47:05.080Z,18.02
2018-12-01T05:47:36.670Z,18.03
2018-12-01T05:48:08.288Z,18.03
2018-12-01T05:48:39.882Z,18.04
2018-12-01T05:49:11.478Z,18.03
2018-12-01T05:49:43.073Z,18.04
2018-12-01T05:50:14.662Z,18.03
2018-12-01T05:50:46.257Z,18.02
2018-12-01T05:51:17.863Z,18.03
2018-12-01T05:51:49.500Z,18.03
2018-12-01T05:52:21.098Z,18.03
2018-12-01T05:52:52.680Z,18.03
2018-12-01T05:53:24.274Z,18.03
2018-12-01T05:53:55.866Z,18.02
2018-12-01T05:54:27.464Z,18.02
2018-12-01T05:54:59.048Z,18.02
2018-12-01T05:55:30.638Z,18.02
2018-12-01T05:56:02.284Z,18.01
2018-12-01T05:56:33.910Z,18.01
2018-12-01T05:57:05.501Z,18.01
2018-12-01T05:57:37.102Z,18.00
2018-12-01T05:58:08.693Z,17.91
2018-12-01T05:58:40.287Z,18.00
2018-12-01T05:59:11.885Z,17.99
2018-12-01T05:59:43.476Z,18.00
2018-12-01T06:00:15.072Z,18.03
2018-12-01T06:00:46.666Z,18.04
2018-12-01T06:01:18.262Z,18.06
2018-12-01T06:01:49.882Z,18.06
2018-12-01T06:02:21.474Z,18.07
2018-12-01T06:02:53.062Z,18.06
2018-12-01T06:03:24.668Z,18.07
2018-12-01T06:03:56.272Z,18.05
2018-12-01T06:04:27.869Z,18.04
2018-12-01T06:04:59.464Z,18.03
2018-12-01T06:05:31.098Z,18.02
2018-12-01T06:06:02.702Z,18.00
2018-12-01T06:06:34.333Z,17.97
2018-12-01T06:07:05.944Z,17.98
2018-12-01T06:07:37.547Z,17.97
2018-12-01T06:08:09.152Z,17.96
2018-12-01T06:08:40.746Z,17.72
2018-12-01T06:09:12.347Z,17.95
2018-12-01T06:09:43.956Z,17.95
2018-12-01T06:10:15.552Z,17.94
2018-12-01T06:10:47.156Z,17.94
2018-12-01T06:11:18.754Z,17.93
2018-12-01T06:11:50.374Z,17.93
2018-12-01T06:12:21.972Z,17.91
2018-12-01T06:12:53.580Z,17.91
2018-12-01T06:13:25.231Z,17.90
2018-12-01T06:13:56.818Z,17.89
2018-12-01T06:14:28.415Z,17.88
2018-12-01T06:15:00.020Z,17.66
2018-12-01T06:15:31.618Z,17.87
2018-12-01T06:16:03.209Z,17.86
2018-12-01T06:16:34.934Z,17.85
2018-12-01T06:17:06.527Z,17.85
2018-12-01T06:17:38.127Z,17.84
2018-12-01T06:18:09.722Z,17.83
2018-12-01T06:18:41.327Z,17.84
2018-12-01T06:19:12.908Z,17.82
2018-12-01T06:19:44.492Z,17.82
2018-12-01T06:20:16.094Z,17.82
2018-12-01T06:20:47.686Z,17.82
2018-12-01T06:21:19.277Z,17.81
2018-12-01T06:21:50.905Z,17.80
2018-12-01T06:22:22.488Z,17.80
2018-12-01T06:22:54.138Z,17.78
2018-12-01T06:23:25.717Z,17.80
2018-12-01T06:23:57.320Z,17.79
2018-12-01T06:24:28.913Z,17.79
2018-12-01T06:25:00.507Z,17.79
2018-12-01T06:25:32.106Z,17.78
2018-12-01T06:26:03.698Z,17.78
2018-12-01T06:26:35.290Z,17.78
2018-12-01T06:27:06.896Z,17.77
2018-12-01T06:27:38.490Z,17.54
2018-12-01T06:28:10.086Z,17.76
2018-12-01T06:28:41.686Z,17.75
2018-12-01T06:29:13.295Z,17.75
2018-12-01T06:29:44.889Z,17.76
2018-12-01T06:30:16.481Z,17.76
2018-12-01T06:30:48.122Z,17.76
2018-12-01T06:31:19.727Z,17.78
2018-12-01T06:31:51.350Z,17.78
2018-12-01T06:32:22.935Z,17.80
2018-12-01T06:32:54.535Z,17.81
2018-12-01T06:33:26.130Z,17.82
2018-12-01T06:33:57.721Z,17.81
2018-12-01T06:34:29.316Z,17.81
2018-12-01T06:35:00.920Z,17.82
2018-12-01T06:35:32.514Z,17.82
2018-12-01T06:36:04.119Z,17.82
2018-12-01T06:36:35.716Z,17.83
2018-12-01T06:37:07.348Z,17.61
2018-12-01T06:37:38.942Z,17.83
2018-12-01T06:38:10.552Z,17.84
2018-12-01T06:38:42.159Z,17.84
2018-12-01T06:39:13.764Z,17.82
2018-12-01T06:39:45.377Z,17.83
2018-12-01T06:40:16.983Z,17.82
2018-12-01T06:40:48.628Z,17.82
2018-12-01T06:41:20.222Z,17.81
2018-12-01T06:41:51.862Z,17.80
2018-12-01T06:42:23.459Z,17.78
2018-12-01T06:42:55.054Z,17.80
2018-12-01T06:43:26.659Z,17.81
2018-12-01T06:43:58.274Z,17.81
2018-12-01T06:44:29.872Z,17.81
2018-12-01T06:45:01.483Z,17.78
2018-12-01T06:45:33.092Z,17.80
2018-12-01T06:46:04.699Z,17.79
2018-12-01T06:46:36.298Z,17.78
2018-12-01T06:47:07.908Z,17.77